Central Nebraska Regional Airport
KGRI : now visible

Airfield :











YOU CAN JOIN US ON...

 
LOGIN :

Register | Disclaimer

   EN    FR    IT 

 









Legend :    VFR   Marginal VFR   IFR   Intensive IFR   Very Intensive IFR
Visi :
Ceiling :
>= 8 km
>= 3000ft
5 to 8 km
1000 to 3000 ft
1500m to 5 km
500 to 1000 ft
800 to 1500m
200 to 500 ft
< 800m
< 200 ft
Symbols :   Thunderstorms  Fog  Heavy snow  Heavy precipitations  Wind > 20 kt






- Airport Elevation : 1847 ft
- IATA code : GRI


KGRI - Central Nebraska Regional

CURRENT METAR :
  • 172153Z 26011KT 10SM CLR 13/M04 A2978 RMK AO2 SLP098 T01331039

EXPIRED METARs :
  • 172053Z 25012KT 10SM CLR 13/M04 A2978 RMK AO2 SLP099 T01281039 56027
  • 171953Z 24014KT 10SM CLR 12/M03 A2979 RMK AO2 PK WND 23026/1855 SLP102 T01221033

TAF KGRI
Valid from the 17 at 18:00 until the 18 at 18:00 UTC


171720Z 1718/1818 24011G17KT P6SM FEW250
FM172300 23007KT P6SM FEW250
FM181500 29010KT P6SM SCT150
KZMP FIR / North America



MET'MAP, your aeronautical weather chart ! - Copyright ORBIFLY December 2007 - Disclaimer

ORBIFLY MET'MAP TEAM :

Programming & Development : Alexandra Zaïnal
Concept & original design : Baudouin d'Aumeries
Assistance for programming : Marc-Olivier Méhu
Technical & hardware support : Manuel Goepfert

Contact : metmap@orbifly.com




SOURCES & CREDITS :

   NOAA       Earth
Advisory